Time;durP1;ratioP1;P1;durP2;ratioP2;P2;SDS_P1;SDS_P2;PMS_P1;PMS_P2;Temp;Humidity;BMP_temperature;BMP_pressure;BME280_temperature;BME280_humidity;BME280_pressure;Samples;Min_cycle;Max_cycle;Signal;HPM_P1;HPM_P2
2023/03/27 00:00:52;;;;;;;10.65;2.80;;;;;;;3.06;83.55;101356.09;5016543;28;20037;-57
2023/03/27 00:03:19;;;;;;;11.05;2.67;;;;;;;3.03;84.38;101361.56;5013621;28;20191;-57
2023/03/27 00:05:44;;;;;;;9.40;2.45;;;;;;;3.16;83.61;101368.63;5016057;28;20030;-57
2023/03/27 00:08:11;;;;;;;10.80;2.60;;;;;;;3.15;83.97;101377.44;5037093;28;20397;-58
2023/03/27 00:10:37;;;;;;;13.30;2.60;;;;;;;3.15;84.26;101380.88;5032043;28;20026;-57
2023/03/27 00:13:04;;;;;;;10.27;2.50;;;;;;;3.12;84.41;101386.34;5032066;28;20033;-57
2023/03/27 00:15:29;;;;;;;12.55;2.60;;;;;;;3.07;85.68;101383.97;5022105;28;20029;-57
2023/03/27 00:17:57;;;;;;;10.85;2.78;;;;;;;3.07;85.84;101394.47;5026446;28;20048;-57
2023/03/27 00:20:24;;;;;;;13.13;2.85;;;;;;;3.12;86.17;101403.81;5024933;28;20031;-57
2023/03/27 00:22:55;;;;;;;10.17;2.60;;;;;;;3.07;86.11;101399.72;5029000;28;20029;-57
2023/03/27 00:25:23;;;;;;;13.10;2.70;;;;;;;3.00;86.69;101406.28;5029710;28;20034;-57
2023/03/27 00:27:49;;;;;;;9.88;2.78;;;;;;;3.07;86.55;101409.38;5019220;28;20061;-57
2023/03/27 00:30:15;;;;;;;13.37;2.80;;;;;;;3.08;87.38;101422.38;5013208;28;20034;-57
2023/03/27 00:32:41;;;;;;;13.68;3.22;;;;;;;3.05;87.21;101421.72;5029141;28;20026;-59
2023/03/27 00:35:08;;;;;;;14.93;2.70;;;;;;;2.97;87.44;101430.06;5023216;28;20041;-57
2023/03/27 00:37:34;;;;;;;15.17;2.80;;;;;;;2.92;87.91;101426.91;5018952;28;20040;-58
2023/03/27 00:40:00;;;;;;;10.10;2.60;;;;;;;2.89;88.39;101416.59;5023993;28;20029;-57
2023/03/27 00:42:26;;;;;;;10.82;2.40;;;;;;;2.85;88.31;101417.75;5024393;28;20089;-58
2023/03/27 00:44:53;;;;;;;10.05;2.30;;;;;;;2.81;88.21;101425.78;5024287;28;20034;-57
2023/03/27 00:47:29;;;;;;;10.80;2.80;;;;;;;2.80;88.63;101424.13;5023027;28;20049;-57
2023/03/27 00:49:55;;;;;;;10.97;2.67;;;;;;;2.80;88.68;101424.13;5031006;28;20038;-58
2023/03/27 00:52:21;;;;;;;8.30;2.57;;;;;;;2.82;88.54;101427.47;5034833;28;20033;-59
2023/03/27 00:54:47;;;;;;;7.40;2.20;;;;;;;2.80;88.26;101434.59;5024256;28;20113;-57
2023/03/27 00:57:17;;;;;;;15.10;2.58;;;;;;;2.86;88.63;101449.06;5014985;28;20041;-57
2023/03/27 00:59:45;;;;;;;13.07;2.97;;;;;;;2.83;88.53;101444.88;5018294;28;20030;-58
2023/03/27 01:02:12;;;;;;;9.43;2.57;;;;;;;2.77;88.72;101450.47;5023589;28;20022;-57
2023/03/27 01:04:39;;;;;;;11.53;2.57;;;;;;;2.76;88.71;101456.66;5025461;28;20036;-58
2023/03/27 01:07:08;;;;;;;5.40;2.60;;;;;;;2.73;88.17;101438.53;5014784;28;20055;-60
2023/03/27 01:09:33;;;;;;;8.30;2.53;;;;;;;2.75;88.23;101452.38;5015932;28;20120;-57
2023/03/27 01:12:12;;;;;;;9.00;2.57;;;;;;;2.68;89.39;101457.13;5010847;28;20026;-58
2023/03/27 01:15:08;;;;;;;12.90;2.77;;;;;;;2.61;90.79;101452.38;5012741;28;20030;-58
2023/03/27 01:17:44;;;;;;;12.10;2.47;;;;;;;2.60;89.76;101458.53;5017627;28;20053;-57
2023/03/27 01:20:29;;;;;;;10.23;2.47;;;;;;;2.54;90.23;101471.09;5012824;28;20029;-57
2023/03/27 01:23:07;;;;;;;12.23;2.70;;;;;;;2.53;91.84;101472.00;5022416;28;20108;-59
2023/03/27 01:26:06;;;;;;;13.83;2.53;;;;;;;2.61;91.36;101471.53;5023918;28;20036;-57
2023/03/27 01:28:45;;;;;;;10.03;2.33;;;;;;;2.60;92.09;101485.56;5020258;28;20097;-59
2023/03/27 01:31:32;;;;;;;12.00;3.07;;;;;;;2.65;91.32;101477.44;5018119;28;20036;-57
2023/03/27 01:34:35;;;;;;;9.70;2.53;;;;;;;2.62;93.27;101477.63;5019331;28;20041;-58
2023/03/27 01:37:21;;;;;;;10.07;3.00;;;;;;;2.63;92.87;101480.16;5024615;28;20156;-59
2023/03/27 01:39:46;;;;;;;13.27;3.00;;;;;;;2.62;93.09;101482.88;5026125;28;20061;-58
2023/03/27 01:42:53;;;;;;;13.97;2.93;;;;;;;2.63;93.68;101485.41;5023127;28;20061;-58
2023/03/27 01:45:24;;;;;;;8.97;2.80;;;;;;;2.68;93.79;101498.22;5020669;28;20045;-57
2023/03/27 01:48:03;;;;;;;11.27;2.87;;;;;;;2.66;94.28;101492.22;5035186;28;20080;-58
2023/03/27 01:50:39;;;;;;;16.07;3.10;;;;;;;2.72;94.10;101499.72;5028484;28;20040;-59
2023/03/27 01:53:13;;;;;;;10.67;3.00;;;;;;;2.73;94.41;101501.41;5016074;28;20022;-59
2023/03/27 01:55:44;;;;;;;8.00;3.13;;;;;;;2.68;93.50;101498.22;5034829;28;20500;-57
2023/03/27 01:58:15;;;;;;;6.40;2.70;;;;;;;2.68;93.03;101501.66;5018722;28;20563;-58
2023/03/27 02:00:44;;;;;;;12.60;3.13;;;;;;;2.69;92.94;101505.13;5020654;28;20065;-58
2023/03/27 02:03:25;;;;;;;12.40;3.33;;;;;;;2.67;92.82;101507.00;5027678;28;20021;-58
2023/03/27 02:06:02;;;;;;;9.30;3.00;;;;;;;2.69;94.19;101500.75;5028965;28;20029;-58
2023/03/27 02:08:41;;;;;;;11.20;2.90;;;;;;;2.73;94.71;101504.00;5023933;28;20037;-58
2023/03/27 02:11:06;;;;;;;13.20;2.87;;;;;;;2.74;93.45;101508.31;5017388;28;20030;-58
2023/03/27 02:13:56;;;;;;;10.27;3.17;;;;;;;2.77;94.02;101513.34;5027671;28;20035;-58
2023/03/27 02:16:27;;;;;;;12.80;2.90;;;;;;;2.67;93.43;101517.47;5029311;28;20715;-58
2023/03/27 02:19:00;;;;;;;10.90;2.80;;;;;;;2.68;93.93;101529.63;5033201;28;20026;-59
2023/03/27 02:21:26;;;;;;;;;;;;;;;2.82;93.24;101531.44;5020060;28;20041;-58
2023/03/27 02:23:52;;;;;;;13.93;3.27;;;;;;;2.62;93.49;101535.25;5025783;28;20026;-58
2023/03/27 02:26:18;;;;;;;13.03;2.93;;;;;;;2.62;93.59;101537.88;5023381;28;20109;-58
2023/03/27 02:28:52;;;;;;;12.57;2.80;;;;;;;2.61;93.54;101544.88;5023910;28;20887;-58
2023/03/27 02:31:48;;;;;;;10.73;3.23;;;;;;;2.61;94.08;101550.09;5025835;28;20385;-58
2023/03/27 02:34:38;;;;;;;15.23;3.70;;;;;;;2.55;94.35;101548.72;5025379;28;20748;-57
2023/03/27 02:37:15;;;;;;;12.13;3.27;;;;;;;2.50;94.39;101553.38;5027634;28;20034;-58
2023/03/27 02:39:56;;;;;;;13.63;3.37;;;;;;;2.49;94.52;101546.44;5018132;28;20060;-58
2023/03/27 02:42:32;;;;;;;14.13;3.50;;;;;;;2.40;94.21;101558.31;5025067;28;20128;-59
2023/03/27 02:45:19;;;;;;;13.90;3.70;;;;;;;2.42;94.50;101553.00;5019412;28;20476;-57
2023/03/27 02:48:03;;;;;;;13.67;3.30;;;;;;;2.39;94.12;101555.78;5025121;28;20121;-57
2023/03/27 02:50:38;;;;;;;11.53;3.23;;;;;;;2.25;94.14;101544.34;5023683;28;20037;-58
2023/03/27 02:53:05;;;;;;;11.80;2.90;;;;;;;2.27;94.11;101563.41;5027841;28;20029;-57
2023/03/27 02:55:42;;;;;;;12.60;3.40;;;;;;;2.31;94.03;101568.47;5024451;28;20030;-57
2023/03/27 02:58:19;;;;;;;10.53;2.97;;;;;;;2.23;94.95;101561.88;5030901;28;20044;-57
2023/03/27 03:00:47;;;;;;;10.93;2.70;;;;;;;2.29;94.96;101572.00;5021040;28;20037;-57
2023/03/27 03:03:26;;;;;;;12.27;3.20;;;;;;;2.35;95.42;101575.19;5024724;28;20030;-57
2023/03/27 03:05:51;;;;;;;10.03;3.10;;;;;;;2.27;94.95;101579.13;5017007;28;20041;-57
2023/03/27 03:08:20;;;;;;;13.23;3.10;;;;;;;2.38;93.86;101581.09;5016857;28;20365;-58
2023/03/27 03:10:46;;;;;;;13.97;3.50;;;;;;;2.31;94.89;101590.25;5016837;28;20025;-57
2023/03/27 03:13:13;;;;;;;13.53;3.50;;;;;;;2.29;94.77;101587.72;5016006;28;20073;-57
2023/03/27 03:15:38;;;;;;;12.63;3.30;;;;;;;2.28;94.77;101591.25;5016882;28;20028;-58
2023/03/27 03:18:04;;;;;;;12.23;3.03;;;;;;;2.28;94.62;101591.25;5013297;28;20037;-57
2023/03/27 03:20:29;;;;;;;11.77;3.20;;;;;;;2.31;94.19;101598.09;5017974;28;20025;-59
2023/03/27 03:22:56;;;;;;;12.07;3.17;;;;;;;2.28;93.74;101595.66;5017825;28;20037;-57
2023/03/27 03:25:22;;;;;;;11.93;2.97;;;;;;;2.27;93.18;101605.28;5016819;28;20021;-58
2023/03/27 03:27:47;;;;;;;12.40;3.07;;;;;;;2.19;93.29;101597.03;5025980;28;20030;-57
2023/03/27 03:30:13;;;;;;;12.43;2.63;;;;;;;2.18;93.14;101611.06;5011924;28;20045;-59
2023/03/27 03:32:38;;;;;;;10.43;2.70;;;;;;;2.20;92.89;101614.44;5023896;28;20172;-57
2023/03/27 03:35:04;;;;;;;11.17;2.60;;;;;;;2.20;93.00;101618.81;5019097;28;20104;-57
2023/03/27 03:37:37;;;;;;;10.47;2.90;;;;;;;2.09;94.06;101622.03;5030116;28;20480;-58
2023/03/27 03:40:10;;;;;;;7.95;2.80;;;;;;;2.09;93.08;101627.28;5024936;28;20466;-57
2023/03/27 03:42:36;;;;;;;10.10;2.80;;;;;;;2.06;93.75;101633.53;5029024;28;20022;-57
2023/03/27 03:45:02;;;;;;;11.20;2.93;;;;;;;2.01;94.29;101635.53;5023966;28;20029;-57
2023/03/27 03:47:28;;;;;;;12.30;3.20;;;;;;;1.96;94.69;101642.78;5026397;28;20033;-58
2023/03/27 03:49:53;;;;;;;14.03;3.27;;;;;;;1.93;94.76;101643.81;5025200;28;20441;-57
2023/03/27 03:52:18;;;;;;;10.70;3.10;;;;;;;1.95;94.90;101644.59;5038073;28;20080;-57
2023/03/27 03:54:44;;;;;;;12.87;3.00;;;;;;;1.95;95.18;101644.59;5027042;28;20036;-60
2023/03/27 03:57:09;;;;;;;10.70;2.90;;;;;;;1.91;95.09;101645.69;5015411;28;20084;-58
2023/03/27 03:59:34;;;;;;;9.37;2.90;;;;;;;1.86;95.56;101648.56;5019653;28;20025;-58
2023/03/27 04:02:00;;;;;;;10.43;2.70;;;;;;;1.90;95.95;101659.69;5017812;28;20026;-57
2023/03/27 04:04:26;;;;;;;13.90;2.80;;;;;;;1.91;95.51;101664.00;5029299;28;20411;-59
2023/03/27 04:06:56;;;;;;;11.77;3.10;;;;;;;1.90;95.92;101670.16;5024824;28;20034;-58
2023/03/27 04:09:24;;;;;;;11.53;2.60;;;;;;;1.92;95.48;101665.66;5022712;28;20750;-57
2023/03/27 04:11:49;;;;;;;10.63;2.87;;;;;;;1.85;96.04;101667.78;5019766;28;20057;-58
2023/03/27 04:14:15;;;;;;;12.13;3.10;;;;;;;1.88;96.09;101675.47;5031540;28;20064;-58
2023/03/27 04:16:40;;;;;;;13.93;3.40;;;;;;;1.88;95.26;101670.22;5013434;28;20029;-58
2023/03/27 04:19:06;;;;;;;10.13;3.10;;;;;;;1.82;95.77;101678.41;5019442;28;20477;-57
2023/03/27 04:21:31;;;;;;;8.90;2.80;;;;;;;1.81;96.84;101678.50;5021983;28;20389;-58
2023/03/27 04:24:01;;;;;;;11.20;2.70;;;;;;;1.80;95.86;101682.91;5023775;28;20029;-57
2023/03/27 04:26:26;;;;;;;12.00;2.80;;;;;;;1.77;96.39;101684.84;5014961;28;20057;-57
2023/03/27 04:28:53;;;;;;;8.57;2.50;;;;;;;1.81;95.82;101691.56;5018759;28;20065;-58
2023/03/27 04:31:18;;;;;;;11.77;2.90;;;;;;;1.78;96.38;101696.97;5021794;28;20022;-57
2023/03/27 04:33:45;;;;;;;6.07;2.67;;;;;;;1.79;96.04;101698.66;5025998;28;20037;-57
2023/03/27 04:36:13;;;;;;;9.67;3.00;;;;;;;1.79;95.28;101704.75;5019892;28;20116;-57
2023/03/27 04:38:39;;;;;;;14.33;3.00;;;;;;;1.81;95.34;101712.50;5024472;28;20037;-60
2023/03/27 04:41:05;;;;;;;7.27;2.77;;;;;;;1.77;95.53;101716.22;5026895;28;20045;-57
2023/03/27 04:43:31;;;;;;;5.77;2.70;;;;;;;1.71;95.68;101713.00;5022774;28;20033;-57
2023/03/27 04:45:56;;;;;;;7.90;2.87;;;;;;;1.68;96.05;101713.16;5028413;28;20040;-57
2023/03/27 04:48:21;;;;;;;17.17;4.10;;;;;;;1.63;96.33;101725.63;5020394;28;20511;-58
2023/03/27 04:50:48;;;;;;;12.80;3.17;;;;;;;1.64;97.04;101731.69;5031934;28;20033;-57
2023/03/27 04:53:15;;;;;;;9.33;3.20;;;;;;;1.60;96.79;101726.66;5030450;28;20481;-57
2023/03/27 04:55:41;;;;;;;15.53;3.70;;;;;;;1.63;97.13;101736.06;5021234;28;20025;-56
2023/03/27 04:58:07;;;;;;;8.37;3.00;;;;;;;1.62;96.91;101734.38;5018740;28;20033;-59
2023/03/27 05:00:32;;;;;;;9.03;2.97;;;;;;;1.61;97.56;101736.19;5026362;28;20069;-58
2023/03/27 05:02:59;;;;;;;9.80;2.90;;;;;;;1.66;97.32;101738.53;5017527;28;20401;-58
2023/03/27 05:05:25;;;;;;;8.50;2.90;;;;;;;1.66;97.63;101746.38;5022422;28;20025;-59
2023/03/27 05:07:50;;;;;;;6.70;2.73;;;;;;;1.65;98.28;101742.09;5019772;28;20036;-59
2023/03/27 05:10:16;;;;;;;9.50;2.90;;;;;;;1.68;98.05;101744.53;5018325;28;20381;-58
2023/03/27 05:12:43;;;;;;;15.53;3.40;;;;;;;1.69;98.15;101748.84;5020323;28;20207;-57
2023/03/27 05:15:09;;;;;;;10.97;2.83;;;;;;;1.68;98.47;101755.00;5020016;28;20122;-57
2023/03/27 05:17:42;;;;;;;7.97;2.63;;;;;;;1.72;98.12;101761.75;5021588;28;20036;-58
2023/03/27 05:20:16;;;;;;;10.52;2.65;;;;;;;1.72;98.15;101761.75;5022111;28;20080;-57
2023/03/27 05:22:42;;;;;;;10.80;3.10;;;;;;;1.73;98.54;101767.84;5027118;28;20526;-57
2023/03/27 05:25:08;;;;;;;7.57;2.60;;;;;;;1.70;99.02;101768.84;5032100;28;20029;-58
2023/03/27 05:27:33;;;;;;;8.93;2.70;;;;;;;1.78;98.70;101772.81;5022364;28;20044;-57
2023/03/27 05:29:59;;;;;;;8.80;2.70;;;;;;;1.79;98.79;101784.97;5022821;28;20503;-58
2023/03/27 05:32:25;;;;;;;11.20;3.03;;;;;;;1.82;98.67;101784.81;5024769;28;20053;-57
2023/03/27 05:34:50;;;;;;;9.90;2.70;;;;;;;1.82;98.42;101780.41;5026088;28;20037;-57
2023/03/27 05:37:16;;;;;;;8.23;2.70;;;;;;;1.87;98.54;101783.63;5025724;28;20040;-59
2023/03/27 05:39:45;;;;;;;10.73;2.80;;;;;;;1.86;98.67;101794.19;5020840;28;20033;-58
2023/03/27 05:42:10;;;;;;;13.83;3.27;;;;;;;1.85;99.16;101793.34;5033424;28;20029;-58
2023/03/27 05:44:35;;;;;;;12.70;3.37;;;;;;;1.87;99.45;101790.63;5023108;28;20044;-57
2023/03/27 05:47:00;;;;;;;8.83;2.63;;;;;;;1.92;99.02;101790.41;5024345;28;20485;-57
2023/03/27 05:49:26;;;;;;;8.57;2.80;;;;;;;1.95;98.95;101798.94;5026509;28;20049;-59
2023/03/27 05:51:52;;;;;;;8.63;2.77;;;;;;;1.96;98.74;101803.22;5027414;28;20068;-60
2023/03/27 05:54:17;;;;;;;8.77;2.77;;;;;;;1.95;99.11;101806.78;5041731;28;20049;-58
2023/03/27 05:56:42;;;;;;;13.90;3.37;;;;;;;1.93;99.31;101811.22;5028849;28;20097;-58
2023/03/27 05:59:08;;;;;;;8.10;2.60;;;;;;;1.93;99.24;101806.00;5021939;28;20029;-58
2023/03/27 06:01:36;;;;;;;13.23;2.90;;;;;;;1.93;99.32;101816.47;5024378;28;20080;-57
2023/03/27 06:04:03;;;;;;;11.40;2.90;;;;;;;1.94;99.29;101815.56;5020100;28;20128;-57
2023/03/27 06:06:28;;;;;;;10.03;2.60;;;;;;;1.96;99.39;101821.56;5019632;28;20094;-58
2023/03/27 06:08:54;;;;;;;14.37;2.80;;;;;;;2.15;98.06;101836.28;5021843;28;20583;-58
2023/03/27 06:11:20;;;;;;;10.00;2.80;;;;;;;2.24;97.34;101841.03;5023496;28;20032;-57
2023/03/27 06:13:45;;;;;;;8.03;2.57;;;;;;;2.34;96.88;101851.00;5021957;28;20033;-58
2023/03/27 06:16:11;;;;;;;10.20;3.50;;;;;;;2.58;95.41;101858.44;5020312;28;20061;-58
2023/03/27 06:18:36;;;;;;;7.03;2.83;;;;;;;2.75;93.58;101871.47;5024089;28;20036;-57
2023/03/27 06:21:02;;;;;;;8.80;3.67;;;;;;;2.49;94.96;101870.25;5022245;28;20040;-58
2023/03/27 06:23:27;;;;;;;9.13;4.07;;;;;;;2.31;95.99;101865.09;5018659;28;20048;-57
2023/03/27 06:25:53;;;;;;;9.60;3.70;;;;;;;2.28;96.26;101862.66;5014952;28;20030;-59
2023/03/27 06:28:19;;;;;;;13.47;4.30;;;;;;;1.88;99.54;101849.88;5016259;28;20114;-57
2023/03/27 06:30:46;;;;;;;8.07;4.37;;;;;;;1.77;100.00;101860.06;5019495;28;20065;-57
2023/03/27 06:33:13;;;;;;;9.87;3.90;;;;;;;1.77;100.00;101860.88;5020546;28;20654;-57
2023/03/27 06:35:40;;;;;;;14.57;4.20;;;;;;;1.68;100.00;101859.59;5019245;28;20117;-59
2023/03/27 06:38:06;;;;;;;8.13;3.37;;;;;;;1.73;100.00;101862.81;5021124;28;20393;-59
2023/03/27 06:40:34;;;;;;;7.87;3.47;;;;;;;1.67;100.00;101872.75;5018082;28;20033;-58
2023/03/27 06:43:07;;;;;;;8.40;3.93;;;;;;;1.63;100.00;101877.28;5015645;28;20092;-57
2023/03/27 06:45:41;;;;;;;8.03;4.17;;;;;;;1.56;100.00;101881.13;5015536;28;20037;-58
2023/03/27 06:48:07;;;;;;;8.77;4.70;;;;;;;1.56;100.00;101874.13;5023225;28;20029;-58
2023/03/27 06:50:33;;;;;;;10.17;5.23;;;;;;;1.60;100.00;101882.66;5025268;28;20026;-57
2023/03/27 06:52:59;;;;;;;12.17;5.20;;;;;;;1.67;100.00;101884.03;5021403;28;20099;-59
2023/03/27 06:55:27;;;;;;;7.90;4.37;;;;;;;1.70;100.00;101893.50;5020956;28;20451;-58
2023/03/27 06:57:55;;;;;;;8.53;4.07;;;;;;;1.79;100.00;101892.19;5021197;28;20032;-57
2023/03/27 07:00:24;;;;;;;11.13;4.60;;;;;;;1.73;100.00;101894.19;5026746;28;20420;-58
2023/03/27 07:02:59;;;;;;;11.53;4.00;;;;;;;1.87;100.00;101897.88;5024546;28;20037;-57
2023/03/27 07:05:26;;;;;;;6.93;4.30;;;;;;;1.91;100.00;101907.28;5020699;28;20389;-59
2023/03/27 07:07:53;;;;;;;9.50;3.57;;;;;;;1.99;100.00;101907.75;5020689;28;20022;-57
2023/03/27 07:10:18;;;;;;;9.07;3.67;;;;;;;2.05;100.00;101903.09;5026318;28;20030;-58
2023/03/27 07:12:45;;;;;;;7.83;3.40;;;;;;;2.15;100.00;101910.41;5021279;28;20033;-57
2023/03/27 07:15:11;;;;;;;9.10;3.60;;;;;;;2.18;100.00;101914.63;5021695;28;20100;-58
2023/03/27 07:17:36;;;;;;;8.57;3.47;;;;;;;2.21;100.00;101914.47;5017803;28;20168;-57
2023/03/27 07:20:05;;;;;;;5.57;3.70;;;;;;;2.26;100.00;101911.59;5020657;28;20028;-58
2023/03/27 07:22:30;;;;;;;7.80;3.27;;;;;;;2.29;100.00;101912.28;5021413;28;20025;-57
2023/03/27 07:24:56;;;;;;;8.90;3.60;;;;;;;2.46;100.00;101928.88;5020060;28;20371;-57
2023/03/27 07:27:23;;;;;;;5.13;3.30;;;;;;;2.47;100.00;101925.31;5024663;28;20083;-57
2023/03/27 07:29:48;;;;;;;8.07;3.57;;;;;;;2.55;100.00;101931.03;5016036;28;20030;-59
2023/03/27 07:32:13;;;;;;;9.77;3.50;;;;;;;2.65;99.33;101930.50;5023383;28;20065;-58
2023/03/27 07:34:39;;;;;;;6.37;2.93;;;;;;;2.71;99.72;101938.03;5026426;28;20025;-57
2023/03/27 07:37:05;;;;;;;6.40;3.27;;;;;;;2.74;100.00;101932.66;5033070;28;20392;-58
2023/03/27 07:39:30;;;;;;;7.50;3.40;;;;;;;2.77;99.46;101936.88;5020360;28;20030;-58
2023/03/27 07:41:56;;;;;;;12.00;3.20;;;;;;;2.93;95.61;101945.59;5021771;28;20489;-57
2023/03/27 07:44:21;;;;;;;8.83;2.93;;;;;;;2.98;95.04;101937.47;5035971;28;20036;-57
2023/03/27 07:46:48;;;;;;;7.03;2.70;;;;;;;3.05;92.38;101946.69;5027224;28;20032;-58
2023/03/27 07:49:13;;;;;;;9.30;3.07;;;;;;;3.03;94.12;101940.69;5025664;28;20049;-59
2023/03/27 07:51:39;;;;;;;9.30;2.70;;;;;;;3.17;93.18;101947.78;5023418;28;20047;-58
2023/03/27 07:54:04;;;;;;;12.13;3.30;;;;;;;3.27;92.19;101948.13;5032119;28;20452;-58
2023/03/27 07:56:34;;;;;;;10.30;2.53;;;;;;;3.32;91.95;101948.72;5022394;28;20044;-59
2023/03/27 07:59:00;;;;;;;16.00;2.87;;;;;;;3.44;91.26;101956.78;5023564;28;20464;-58
2023/03/27 08:01:26;;;;;;;7.85;2.70;;;;;;;3.55;89.12;101958.81;5020632;28;20061;-58
2023/03/27 08:03:52;;;;;;;9.48;2.72;;;;;;;3.58;88.92;101958.63;5037819;28;20053;-59
2023/03/27 08:06:18;;;;;;;10.10;2.23;;;;;;;3.75;85.51;101966.38;5036200;28;20025;-57
2023/03/27 08:08:43;;;;;;;10.17;2.50;;;;;;;3.74;87.88;101958.59;5025927;28;20045;-58
2023/03/27 08:11:09;;;;;;;6.63;2.65;;;;;;;3.72;88.27;101949.97;5023108;28;20025;-58
2023/03/27 08:13:34;;;;;;;6.72;2.42;;;;;;;3.88;87.39;101961.28;5026185;28;20036;-57
2023/03/27 08:16:12;;;;;;;7.72;2.40;;;;;;;3.99;88.85;101972.94;5027664;28;20024;-58
2023/03/27 08:18:37;;;;;;;15.80;2.45;;;;;;;4.09;87.28;101979.31;5025962;28;20029;-58
2023/03/27 08:21:05;;;;;;;9.70;2.33;;;;;;;4.20;86.11;101980.47;5025263;28;20466;-58
2023/03/27 08:23:32;;;;;;;6.70;2.05;;;;;;;4.29;86.02;101979.91;5036242;28;20463;-58
2023/03/27 08:25:59;;;;;;;3.20;1.30;;;;;;;4.52;83.64;101975.03;5030726;28;20029;-59
2023/03/27 08:28:28;;;;;;;4.57;1.70;;;;;;;4.38;80.98;101989.88;5043836;28;20091;-58
2023/03/27 08:30:54;;;;;;;6.07;1.77;;;;;;;4.08;83.26;101990.75;5020451;28;20536;-58
2023/03/27 08:33:21;;;;;;;4.53;1.45;;;;;;;4.02;83.11;101996.34;5022441;28;20033;-58
2023/03/27 08:35:48;;;;;;;4.10;1.20;;;;;;;4.00;82.96;101991.19;5023219;28;20052;-58
2023/03/27 08:38:14;;;;;;;3.40;1.33;;;;;;;4.12;82.39;101997.53;5026537;28;20096;-58
2023/03/27 08:40:46;;;;;;;8.48;2.08;;;;;;;4.13;83.34;101996.56;5022143;28;20437;-58
2023/03/27 08:43:16;;;;;;;5.05;1.58;;;;;;;4.24;83.26;101997.72;5018447;28;20033;-58
2023/03/27 08:45:50;;;;;;;7.53;1.80;;;;;;;4.27;84.17;101998.38;5018429;28;20428;-57
2023/03/27 08:48:20;;;;;;;5.68;1.75;;;;;;;4.42;84.76;101994.00;5025752;28;20049;-57
2023/03/27 08:50:50;;;;;;;8.60;1.98;;;;;;;4.52;81.82;102002.16;5025843;28;20022;-57
2023/03/27 08:53:29;;;;;;;6.18;2.00;;;;;;;4.63;81.04;102014.66;5029031;28;20018;-57
2023/03/27 08:55:55;;;;;;;10.90;2.20;;;;;;;4.35;80.64;102011.06;5032207;28;20118;-57
2023/03/27 08:58:20;;;;;;;4.00;1.73;;;;;;;4.68;81.76;102012.59;5034635;28;20076;-58
2023/03/27 09:00:57;;;;;;;9.65;2.25;;;;;;;4.78;80.25;102019.91;5041217;28;20512;-57
2023/03/27 09:03:39;;;;;;;5.22;1.75;;;;;;;5.00;78.07;102026.47;5026478;28;20034;-57
2023/03/27 09:06:22;;;;;;;5.50;1.70;;;;;;;4.85;78.88;102029.94;5032204;28;20133;-58
2023/03/27 09:09:20;;;;;;;;;;;;;;;4.96;79.08;102024.03;5029567;28;20071;-58
2023/03/27 09:12:05;;;;;;;6.80;1.83;;;;;;;5.06;77.28;102026.94;5023543;28;19913;-58
2023/03/27 09:14:50;;;;;;;8.93;2.10;;;;;;;5.14;75.91;102039.59;5026794;28;20087;-57
2023/03/27 09:17:31;;;;;;;4.88;1.70;;;;;;;5.22;72.66;102026.81;5031577;28;20061;-57
2023/03/27 09:20:25;;;;;;;7.30;2.22;;;;;;;5.25;73.51;102037.13;5019605;28;20115;-58
2023/03/27 09:23:21;;;;;;;5.80;2.00;;;;;;;5.02;71.95;102035.13;5022420;28;20504;-58
2023/03/27 09:25:54;;;;;;;3.28;1.35;;;;;;;5.48;73.65;102063.75;5018252;28;20041;-58
2023/03/27 09:28:23;;;;;;;5.10;1.40;;;;;;;5.17;79.59;102068.31;5023735;28;20541;-58
2023/03/27 09:30:49;;;;;;;3.53;1.48;;;;;;;4.72;80.74;102076.31;5030133;28;20030;-57
2023/03/27 09:33:14;;;;;;;3.40;1.35;;;;;;;4.01;85.00;102091.78;5018061;28;20038;-56
2023/03/27 09:35:41;;;;;;;3.85;1.30;;;;;;;3.72;85.51;102089.03;5026477;28;20037;-57
2023/03/27 09:38:18;;;;;;;2.08;1.05;;;;;;;3.45;86.96;102087.00;5024941;28;20112;-58
2023/03/27 09:40:52;;;;;;;3.00;1.13;;;;;;;2.89;87.21;102087.31;5027868;28;20029;-57
2023/03/27 09:43:25;;;;;;;6.80;1.90;;;;;;;2.73;88.18;102076.78;5026376;28;20037;-58
2023/03/27 09:45:52;;;;;;;4.73;1.20;;;;;;;2.66;90.55;102071.03;5022536;28;20033;-58
2023/03/27 09:49:01;;;;;;;4.67;1.50;;;;;;;2.66;90.94;102073.66;5034487;28;20128;-57
2023/03/27 09:51:50;;;;;;;4.90;1.30;;;;;;;2.86;92.03;102077.00;5027376;28;20056;-57
2023/03/27 09:54:19;;;;;;;4.97;1.37;;;;;;;2.74;90.46;102081.97;5029514;28;20105;-57
2023/03/27 09:56:52;;;;;;;3.83;1.27;;;;;;;2.91;91.36;102082.88;5032185;28;20127;-57
2023/03/27 09:59:25;;;;;;;5.38;1.48;;;;;;;3.01;90.80;102085.84;5033271;28;20021;-58
2023/03/27 10:01:55;;;;;;;3.45;1.30;;;;;;;3.06;91.76;102084.66;5022402;28;20358;-58
2023/03/27 10:04:22;;;;;;;2.83;1.13;;;;;;;3.17;91.47;102091.97;5020548;28;20463;-58
2023/03/27 10:06:58;;;;;;;3.73;1.30;;;;;;;3.31;89.10;102096.44;5027115;28;20029;-58
2023/03/27 10:09:29;;;;;;;4.57;1.60;;;;;;;3.38;89.32;102093.50;5036234;28;20033;-57
2023/03/27 10:12:15;;;;;;;4.87;1.57;;;;;;;3.69;89.52;102097.09;5030980;28;20029;-57
2023/03/27 10:14:43;;;;;;;3.50;1.20;;;;;;;3.84;87.97;102101.47;5029525;28;20076;-57
2023/03/27 10:17:21;;;;;;;6.25;1.63;;;;;;;4.15;87.08;102098.88;5032660;28;20029;-59
2023/03/27 10:19:51;;;;;;;10.18;1.92;;;;;;;4.30;85.96;102081.41;5026752;28;20034;-57
2023/03/27 10:22:32;;;;;;;7.07;1.80;;;;;;;4.52;83.93;102086.22;5032457;28;20040;-58
2023/03/27 10:25:01;;;;;;;5.10;1.83;;;;;;;4.61;87.15;102090.09;5031436;28;20037;-58
2023/03/27 10:27:33;;;;;;;6.40;2.00;;;;;;;4.81;88.09;102095.94;5024308;28;20029;-58
2023/03/27 10:29:58;;;;;;;7.40;1.67;;;;;;;4.81;86.27;102081.03;5027675;28;20062;-57
2023/03/27 10:32:44;;;;;;;5.43;1.95;;;;;;;5.16;87.60;102079.78;5014434;28;20744;-57
2023/03/27 10:35:26;;;;;;;4.70;1.90;;;;;;;5.28;86.29;102093.13;5026602;28;20029;-57
2023/03/27 10:37:52;;;;;;;7.28;1.85;;;;;;;5.44;80.87;102088.59;5026414;28;20033;-58
2023/03/27 10:40:20;;;;;;;8.65;1.80;;;;;;;5.46;79.15;102076.19;5023475;28;20084;-58
2023/03/27 10:42:47;;;;;;;5.88;1.83;;;;;;;5.46;78.87;102083.22;5019525;28;20855;-58
2023/03/27 10:45:18;;;;;;;5.53;1.38;;;;;;;5.57;77.30;102083.38;5015739;28;20040;-57
2023/03/27 10:47:50;;;;;;;8.13;1.80;;;;;;;5.52;78.41;102083.69;5033020;28;20465;-58
2023/03/27 10:50:26;;;;;;;6.22;1.83;;;;;;;5.62;78.58;102088.34;5026192;28;20115;-59
2023/03/27 10:53:13;;;;;;;5.63;1.50;;;;;;;5.94;78.76;102090.72;5024025;28;20105;-55
2023/03/27 10:56:04;;;;;;;5.82;1.85;;;;;;;6.22;80.13;102094.19;5027073;28;20070;-57
2023/03/27 10:58:37;;;;;;;7.22;1.50;;;;;;;6.21;73.76;102103.03;5020315;28;20393;-58
2023/03/27 11:01:10;;;;;;;3.97;1.38;;;;;;;6.13;70.70;102124.59;5034650;28;20037;-59
2023/03/27 11:03:42;;;;;;;;;;;;;;;6.10;73.95;102158.19;5036469;28;20033;-58
2023/03/27 11:06:14;;;;;;;3.58;1.67;;;;;;;4.60;79.22;102172.50;5021923;28;19913;-58
2023/03/27 11:08:55;;;;;;;5.38;1.55;;;;;;;4.07;83.10;102170.19;5022086;28;20037;-58
2023/03/27 11:11:26;;;;;;;6.05;2.00;;;;;;;3.14;87.44;102164.66;5022490;28;20034;-58
2023/03/27 11:13:58;;;;;;;5.70;2.00;;;;;;;2.63;91.57;102149.75;5029309;28;20029;-58
2023/03/27 11:16:46;;;;;;;6.88;2.10;;;;;;;2.55;94.43;102148.38;5032547;28;20107;-59
2023/03/27 11:19:33;;;;;;;4.93;2.20;;;;;;;2.54;95.94;102159.78;5033026;28;20034;-58
2023/03/27 11:22:04;;;;;;;6.32;1.90;;;;;;;2.48;96.37;102149.63;5032142;28;20037;-57
2023/03/27 11:24:52;;;;;;;5.45;1.98;;;;;;;2.77;99.33;102152.50;5021490;28;20557;-57
2023/03/27 11:27:20;;;;;;;6.88;2.13;;;;;;;2.97;100.00;102150.66;5026570;28;20099;-58
2023/03/27 11:30:03;;;;;;;7.50;2.05;;;;;;;3.27;98.29;102146.53;5022405;28;20709;-57
2023/03/27 11:32:41;;;;;;;7.30;2.20;;;;;;;3.38;98.01;102151.19;5033123;28;20060;-57
2023/03/27 11:35:13;;;;;;;6.28;2.05;;;;;;;3.67;95.87;102152.25;5016704;28;20116;-59
2023/03/27 11:37:46;;;;;;;6.55;2.40;;;;;;;3.90;97.82;102150.16;5027043;28;20026;-57
2023/03/27 11:40:22;;;;;;;6.63;2.28;;;;;;;3.95;94.91;102149.88;5026490;28;20017;-58
2023/03/27 11:42:48;;;;;;;7.70;2.33;;;;;;;4.34;97.15;102143.28;5033803;28;20075;-58
2023/03/27 11:45:17;;;;;;;11.90;2.70;;;;;;;4.46;98.47;102147.00;5031074;28;20025;-57